sensor_id;sensor_type;location;lat;lon;timestamp;P1;durP1;ratioP1;P2;durP2;ratioP2
14007;SDS011;61651;45.508;12.232;2023-08-21T00:01:36;12.45;;;11.35;;
14007;SDS011;61651;45.508;12.232;2023-08-21T00:04:39;12.63;;;11.45;;
14007;SDS011;61651;45.508;12.232;2023-08-21T00:07:41;12.55;;;11.55;;
14007;SDS011;61651;45.508;12.232;2023-08-21T00:10:43;12.32;;;11.10;;
14007;SDS011;61651;45.508;12.232;2023-08-21T00:13:45;12.73;;;11.52;;
14007;SDS011;61651;45.508;12.232;2023-08-21T00:16:49;12.25;;;11.38;;
14007;SDS011;61651;45.508;12.232;2023-08-21T00:19:52;12.57;;;11.52;;
14007;SDS011;61651;45.508;12.232;2023-08-21T00:22:55;12.15;;;11.15;;
14007;SDS011;61651;45.508;12.232;2023-08-21T00:25:57;13.05;;;12.00;;
14007;SDS011;61651;45.508;12.232;2023-08-21T00:28:59;12.68;;;11.60;;
14007;SDS011;61651;45.508;12.232;2023-08-21T00:32:01;12.85;;;11.68;;
14007;SDS011;61651;45.508;12.232;2023-08-21T00:35:04;12.57;;;11.27;;
14007;SDS011;61651;45.508;12.232;2023-08-21T00:38:06;12.80;;;11.73;;
14007;SDS011;61651;45.508;12.232;2023-08-21T00:41:08;12.95;;;11.63;;
14007;SDS011;61651;45.508;12.232;2023-08-21T00:44:10;12.90;;;11.82;;
14007;SDS011;61651;45.508;12.232;2023-08-21T00:47:12;12.73;;;11.65;;
14007;SDS011;61651;45.508;12.232;2023-08-21T00:50:16;12.75;;;11.75;;
14007;SDS011;61651;45.508;12.232;2023-08-21T00:53:18;13.57;;;12.30;;
14007;SDS011;61651;45.508;12.232;2023-08-21T00:56:20;12.50;;;11.40;;
14007;SDS011;61651;45.508;12.232;2023-08-21T00:59:22;12.60;;;11.60;;
14007;SDS011;61651;45.508;12.232;2023-08-21T01:02:25;12.20;;;11.00;;
14007;SDS011;61651;45.508;12.232;2023-08-21T01:05:28;12.38;;;11.35;;
14007;SDS011;61651;45.508;12.232;2023-08-21T01:08:35;12.32;;;11.40;;
14007;SDS011;61651;45.508;12.232;2023-08-21T01:11:46;13.48;;;12.27;;
14007;SDS011;61651;45.508;12.232;2023-08-21T01:14:54;12.95;;;11.93;;
14007;SDS011;61651;45.508;12.232;2023-08-21T01:18:00;12.57;;;11.40;;
14007;SDS011;61651;45.508;12.232;2023-08-21T01:21:04;12.60;;;11.60;;
14007;SDS011;61651;45.508;12.232;2023-08-21T01:24:08;12.95;;;11.95;;
14007;SDS011;61651;45.508;12.232;2023-08-21T01:27:10;12.63;;;11.55;;
14007;SDS011;61651;45.508;12.232;2023-08-21T01:30:13;12.63;;;11.43;;
14007;SDS011;61651;45.508;12.232;2023-08-21T01:33:16;12.10;;;11.20;;
14007;SDS011;61651;45.508;12.232;2023-08-21T01:36:20;12.50;;;11.43;;
14007;SDS011;61651;45.508;12.232;2023-08-21T01:39:24;12.88;;;11.80;;
14007;SDS011;61651;45.508;12.232;2023-08-21T01:42:27;12.20;;;11.30;;
14007;SDS011;61651;45.508;12.232;2023-08-21T01:45:29;12.57;;;11.43;;
14007;SDS011;61651;45.508;12.232;2023-08-21T01:48:31;12.85;;;11.75;;
14007;SDS011;61651;45.508;12.232;2023-08-21T01:51:33;12.20;;;11.10;;
14007;SDS011;61651;45.508;12.232;2023-08-21T01:54:36;12.73;;;11.48;;
14007;SDS011;61651;45.508;12.232;2023-08-21T01:57:38;12.25;;;11.25;;
14007;SDS011;61651;45.508;12.232;2023-08-21T02:00:45;12.13;;;11.13;;
14007;SDS011;61651;45.508;12.232;2023-08-21T02:03:47;11.52;;;10.52;;
14007;SDS011;61651;45.508;12.232;2023-08-21T02:06:49;12.82;;;11.63;;
14007;SDS011;61651;45.508;12.232;2023-08-21T02:09:52;11.82;;;10.82;;
14007;SDS011;61651;45.508;12.232;2023-08-21T02:12:54;12.15;;;11.15;;
14007;SDS011;61651;45.508;12.232;2023-08-21T02:15:56;12.20;;;11.30;;
14007;SDS011;61651;45.508;12.232;2023-08-21T02:18:58;11.43;;;10.52;;
14007;SDS011;61651;45.508;12.232;2023-08-21T02:22:00;12.30;;;11.00;;
14007;SDS011;61651;45.508;12.232;2023-08-21T02:25:04;11.88;;;11.07;;
14007;SDS011;61651;45.508;12.232;2023-08-21T02:28:07;12.32;;;11.38;;
14007;SDS011;61651;45.508;12.232;2023-08-21T02:31:09;12.05;;;11.15;;
14007;SDS011;61651;45.508;12.232;2023-08-21T02:34:11;12.23;;;11.23;;
14007;SDS011;61651;45.508;12.232;2023-08-21T02:37:13;12.38;;;11.38;;
14007;SDS011;61651;45.508;12.232;2023-08-21T02:40:16;13.00;;;11.70;;
14007;SDS011;61651;45.508;12.232;2023-08-21T02:43:18;11.38;;;10.35;;
14007;SDS011;61651;45.508;12.232;2023-08-21T02:46:20;12.27;;;11.30;;
14007;SDS011;61651;45.508;12.232;2023-08-21T02:49:23;13.55;;;11.63;;
14007;SDS011;61651;45.508;12.232;2023-08-21T02:52:25;11.90;;;11.00;;
14007;SDS011;61651;45.508;12.232;2023-08-21T02:55:29;11.50;;;10.60;;
14007;SDS011;61651;45.508;12.232;2023-08-21T02:58:31;12.18;;;11.10;;
14007;SDS011;61651;45.508;12.232;2023-08-21T03:01:33;12.45;;;11.35;;
14007;SDS011;61651;45.508;12.232;2023-08-21T03:04:35;12.52;;;11.43;;
14007;SDS011;61651;45.508;12.232;2023-08-21T03:07:37;11.85;;;10.95;;
14007;SDS011;61651;45.508;12.232;2023-08-21T03:10:40;12.50;;;11.50;;
14007;SDS011;61651;45.508;12.232;2023-08-21T03:13:42;11.95;;;10.73;;
14007;SDS011;61651;45.508;12.232;2023-08-21T03:16:44;12.38;;;11.25;;
14007;SDS011;61651;45.508;12.232;2023-08-21T03:19:46;11.32;;;10.43;;
14007;SDS011;61651;45.508;12.232;2023-08-21T03:22:48;12.25;;;10.70;;
14007;SDS011;61651;45.508;12.232;2023-08-21T03:25:53;11.77;;;10.77;;
14007;SDS011;61651;45.508;12.232;2023-08-21T03:28:55;11.90;;;10.90;;
14007;SDS011;61651;45.508;12.232;2023-08-21T03:31:57;11.70;;;10.70;;
14007;SDS011;61651;45.508;12.232;2023-08-21T03:34:59;11.30;;;10.40;;
14007;SDS011;61651;45.508;12.232;2023-08-21T03:38:01;11.95;;;10.95;;
14007;SDS011;61651;45.508;12.232;2023-08-21T03:41:05;10.90;;;10.10;;
14007;SDS011;61651;45.508;12.232;2023-08-21T03:44:07;10.90;;;10.00;;
14007;SDS011;61651;45.508;12.232;2023-08-21T03:47:09;11.00;;;10.13;;
14007;SDS011;61651;45.508;12.232;2023-08-21T03:50:14;11.70;;;10.80;;
14007;SDS011;61651;45.508;12.232;2023-08-21T03:53:16;11.80;;;10.90;;
14007;SDS011;61651;45.508;12.232;2023-08-21T03:56:19;11.65;;;10.65;;
14007;SDS011;61651;45.508;12.232;2023-08-21T03:59:22;11.82;;;10.82;;
14007;SDS011;61651;45.508;12.232;2023-08-21T04:02:27;11.57;;;10.60;;
14007;SDS011;61651;45.508;12.232;2023-08-21T04:05:29;11.10;;;10.10;;
14007;SDS011;61651;45.508;12.232;2023-08-21T04:08:31;11.18;;;10.27;;
14007;SDS011;61651;45.508;12.232;2023-08-21T04:11:34;11.07;;;10.18;;
14007;SDS011;61651;45.508;12.232;2023-08-21T04:14:36;10.60;;;9.90;;
14007;SDS011;61651;45.508;12.232;2023-08-21T04:17:38;11.43;;;10.55;;
14007;SDS011;61651;45.508;12.232;2023-08-21T04:20:40;11.30;;;10.30;;
14007;SDS011;61651;45.508;12.232;2023-08-21T04:26:47;11.75;;;10.75;;
14007;SDS011;61651;45.508;12.232;2023-08-21T04:29:49;11.35;;;10.23;;
14007;SDS011;61651;45.508;12.232;2023-08-21T04:32:51;11.93;;;10.93;;
14007;SDS011;61651;45.508;12.232;2023-08-21T04:35:53;11.20;;;10.30;;
14007;SDS011;61651;45.508;12.232;2023-08-21T04:38:55;10.70;;;9.88;;
14007;SDS011;61651;45.508;12.232;2023-08-21T04:41:59;11.35;;;10.55;;
14007;SDS011;61651;45.508;12.232;2023-08-21T04:45:01;11.45;;;10.55;;
14007;SDS011;61651;45.508;12.232;2023-08-21T04:48:05;11.57;;;10.50;;
14007;SDS011;61651;45.508;12.232;2023-08-21T04:51:07;11.57;;;10.75;;
14007;SDS011;61651;45.508;12.232;2023-08-21T04:54:10;12.05;;;10.95;;
14007;SDS011;61651;45.508;12.232;2023-08-21T04:57:13;11.75;;;10.88;;
14007;SDS011;61651;45.508;12.232;2023-08-21T05:00:16;11.80;;;10.85;;
14007;SDS011;61651;45.508;12.232;2023-08-21T05:03:18;12.25;;;11.20;;
14007;SDS011;61651;45.508;12.232;2023-08-21T05:06:20;12.02;;;11.02;;
14007;SDS011;61651;45.508;12.232;2023-08-21T05:09:23;12.07;;;11.10;;
14007;SDS011;61651;45.508;12.232;2023-08-21T05:12:27;11.40;;;10.27;;
14007;SDS011;61651;45.508;12.232;2023-08-21T05:15:29;11.57;;;10.68;;
14007;SDS011;61651;45.508;12.232;2023-08-21T05:18:31;12.20;;;11.20;;
14007;SDS011;61651;45.508;12.232;2023-08-21T05:21:33;11.80;;;10.60;;
14007;SDS011;61651;45.508;12.232;2023-08-21T05:24:34;11.80;;;10.80;;
14007;SDS011;61651;45.508;12.232;2023-08-21T05:27:38;12.23;;;11.30;;
14007;SDS011;61651;45.508;12.232;2023-08-21T05:30:40;12.77;;;11.60;;
14007;SDS011;61651;45.508;12.232;2023-08-21T05:33:42;12.20;;;11.13;;
14007;SDS011;61651;45.508;12.232;2023-08-21T05:36:45;12.85;;;11.85;;
14007;SDS011;61651;45.508;12.232;2023-08-21T05:39:47;12.30;;;11.27;;
14007;SDS011;61651;45.508;12.232;2023-08-21T05:42:51;12.75;;;11.85;;
14007;SDS011;61651;45.508;12.232;2023-08-21T05:45:53;13.55;;;11.93;;
14007;SDS011;61651;45.508;12.232;2023-08-21T05:48:55;11.73;;;10.82;;
14007;SDS011;61651;45.508;12.232;2023-08-21T05:51:57;12.10;;;11.20;;
14007;SDS011;61651;45.508;12.232;2023-08-21T05:54:59;12.90;;;11.13;;
14007;SDS011;61651;45.508;12.232;2023-08-21T05:58:03;12.32;;;11.43;;
14007;SDS011;61651;45.508;12.232;2023-08-21T06:01:05;13.35;;;12.05;;
14007;SDS011;61651;45.508;12.232;2023-08-21T06:04:07;12.38;;;11.35;;
14007;SDS011;61651;45.508;12.232;2023-08-21T06:07:09;11.98;;;10.98;;
14007;SDS011;61651;45.508;12.232;2023-08-21T06:10:11;11.50;;;10.60;;
14007;SDS011;61651;45.508;12.232;2023-08-21T06:13:16;13.07;;;11.82;;
14007;SDS011;61651;45.508;12.232;2023-08-21T07:11:02;10.80;;;9.85;;
14007;SDS011;61651;45.508;12.232;2023-08-21T07:14:05;10.82;;;9.93;;
14007;SDS011;61651;45.508;12.232;2023-08-21T07:17:08;9.88;;;9.18;;
14007;SDS011;61651;45.508;12.232;2023-08-21T07:20:10;11.25;;;10.35;;
14007;SDS011;61651;45.508;12.232;2023-08-21T07:23:12;10.75;;;9.77;;
14007;SDS011;61651;45.508;12.232;2023-08-21T07:26:16;10.65;;;9.77;;
14007;SDS011;61651;45.508;12.232;2023-08-21T07:29:18;12.05;;;11.05;;
14007;SDS011;61651;45.508;12.232;2023-08-21T07:32:20;11.25;;;10.40;;
14007;SDS011;61651;45.508;12.232;2023-08-21T07:35:22;10.82;;;9.93;;
14007;SDS011;61651;45.508;12.232;2023-08-21T07:38:24;11.93;;;10.93;;
14007;SDS011;61651;45.508;12.232;2023-08-21T07:41:28;10.75;;;9.75;;
14007;SDS011;61651;45.508;12.232;2023-08-21T07:44:30;10.43;;;9.40;;
14007;SDS011;61651;45.508;12.232;2023-08-21T07:47:32;10.88;;;9.98;;
14007;SDS011;61651;45.508;12.232;2023-08-21T07:50:34;10.70;;;9.90;;
14007;SDS011;61651;45.508;12.232;2023-08-21T07:53:36;10.73;;;9.85;;
14007;SDS011;61651;45.508;12.232;2023-08-21T07:56:40;11.73;;;10.18;;
14007;SDS011;61651;45.508;12.232;2023-08-21T07:59:42;11.02;;;10.00;;
14007;SDS011;61651;45.508;12.232;2023-08-21T08:02:44;10.88;;;9.88;;
14007;SDS011;61651;45.508;12.232;2023-08-21T08:05:46;10.57;;;9.40;;
14007;SDS011;61651;45.508;12.232;2023-08-21T08:08:48;10.63;;;9.05;;
14007;SDS011;61651;45.508;12.232;2023-08-21T08:11:51;10.32;;;9.57;;
14007;SDS011;61651;45.508;12.232;2023-08-21T08:14:53;11.60;;;9.75;;
14007;SDS011;61651;45.508;12.232;2023-08-21T08:17:56;9.77;;;8.98;;
14007;SDS011;61651;45.508;12.232;2023-08-21T08:20:59;12.40;;;11.18;;
14007;SDS011;61651;45.508;12.232;2023-08-21T08:24:01;11.02;;;10.00;;
14007;SDS011;61651;45.508;12.232;2023-08-21T08:27:04;10.13;;;9.00;;
14007;SDS011;61651;45.508;12.232;2023-08-21T08:30:07;9.93;;;9.15;;
14007;SDS011;61651;45.508;12.232;2023-08-21T08:33:09;10.68;;;9.77;;
14007;SDS011;61651;45.508;12.232;2023-08-21T08:36:11;9.45;;;8.70;;
14007;SDS011;61651;45.508;12.232;2023-08-21T08:39:13;10.02;;;9.13;;
14007;SDS011;61651;45.508;12.232;2023-08-21T08:42:17;8.48;;;7.68;;
14007;SDS011;61651;45.508;12.232;2023-08-21T08:45:22;9.75;;;8.85;;
14007;SDS011;61651;45.508;12.232;2023-08-21T08:48:31;8.45;;;7.65;;
14007;SDS011;61651;45.508;12.232;2023-08-21T08:51:33;9.02;;;8.18;;
14007;SDS011;61651;45.508;12.232;2023-08-21T08:54:39;9.48;;;8.48;;
14007;SDS011;61651;45.508;12.232;2023-08-21T08:57:42;9.15;;;8.25;;
14007;SDS011;61651;45.508;12.232;2023-08-21T09:00:44;10.00;;;8.15;;
14007;SDS011;61651;45.508;12.232;2023-08-21T09:03:46;8.82;;;8.10;;
14007;SDS011;61651;45.508;12.232;2023-08-21T09:06:50;9.40;;;8.57;;
14007;SDS011;61651;45.508;12.232;2023-08-21T09:09:52;9.55;;;8.57;;
14007;SDS011;61651;45.508;12.232;2023-08-21T09:12:55;9.23;;;8.38;;
14007;SDS011;61651;45.508;12.232;2023-08-21T09:15:59;8.93;;;8.23;;
14007;SDS011;61651;45.508;12.232;2023-08-21T09:19:01;9.10;;;8.23;;
14007;SDS011;61651;45.508;12.232;2023-08-21T09:22:09;8.50;;;7.68;;
14007;SDS011;61651;45.508;12.232;2023-08-21T09:25:12;9.00;;;8.30;;
14007;SDS011;61651;45.508;12.232;2023-08-21T09:28:17;7.55;;;6.95;;
14007;SDS011;61651;45.508;12.232;2023-08-21T09:31:24;8.43;;;7.82;;
14007;SDS011;61651;45.508;12.232;2023-08-21T09:34:33;8.45;;;7.55;;
14007;SDS011;61651;45.508;12.232;2023-08-21T09:37:36;8.25;;;7.45;;
14007;SDS011;61651;45.508;12.232;2023-08-21T09:40:41;8.52;;;7.72;;
14007;SDS011;61651;45.508;12.232;2023-08-21T09:43:46;8.48;;;7.72;;
14007;SDS011;61651;45.508;12.232;2023-08-21T09:46:48;8.30;;;7.70;;
14007;SDS011;61651;45.508;12.232;2023-08-21T09:49:50;7.97;;;7.32;;
14007;SDS011;61651;45.508;12.232;2023-08-21T09:52:53;8.27;;;7.57;;
14007;SDS011;61651;45.508;12.232;2023-08-21T09:55:55;8.43;;;7.63;;
14007;SDS011;61651;45.508;12.232;2023-08-21T09:58:58;8.50;;;7.82;;
14007;SDS011;61651;45.508;12.232;2023-08-21T10:02:01;7.75;;;7.15;;
14007;SDS011;61651;45.508;12.232;2023-08-21T10:05:05;7.90;;;7.25;;
14007;SDS011;61651;45.508;12.232;2023-08-21T10:08:08;9.15;;;7.22;;
14007;SDS011;61651;45.508;12.232;2023-08-21T10:11:10;8.38;;;7.78;;
14007;SDS011;61651;45.508;12.232;2023-08-21T10:14:15;7.15;;;6.65;;
14007;SDS011;61651;45.508;12.232;2023-08-21T10:17:18;8.25;;;7.35;;
14007;SDS011;61651;45.508;12.232;2023-08-21T10:20:21;7.85;;;7.25;;
14007;SDS011;61651;45.508;12.232;2023-08-21T10:23:25;7.25;;;6.75;;
14007;SDS011;61651;45.508;12.232;2023-08-21T10:26:29;9.20;;;7.00;;
14007;SDS011;61651;45.508;12.232;2023-08-21T10:29:32;8.35;;;7.65;;
14007;SDS011;61651;45.508;12.232;2023-08-21T10:32:34;7.78;;;7.07;;
14007;SDS011;61651;45.508;12.232;2023-08-21T10:35:46;7.38;;;6.88;;
14007;SDS011;61651;45.508;12.232;2023-08-21T10:39:00;7.90;;;7.20;;
14007;SDS011;61651;45.508;12.232;2023-08-21T10:42:02;7.90;;;7.22;;
14007;SDS011;61651;45.508;12.232;2023-08-21T10:45:11;8.82;;;8.20;;
14007;SDS011;61651;45.508;12.232;2023-08-21T10:48:13;7.55;;;6.85;;
14007;SDS011;61651;45.508;12.232;2023-08-21T10:51:16;7.47;;;6.88;;
14007;SDS011;61651;45.508;12.232;2023-08-21T10:54:18;7.72;;;7.03;;
14007;SDS011;61651;45.508;12.232;2023-08-21T10:57:21;7.90;;;7.10;;
14007;SDS011;61651;45.508;12.232;2023-08-21T11:00:25;7.63;;;7.00;;
14007;SDS011;61651;45.508;12.232;2023-08-21T11:03:27;8.80;;;6.55;;
14007;SDS011;61651;45.508;12.232;2023-08-21T11:06:29;6.97;;;6.18;;
14007;SDS011;61651;45.508;12.232;2023-08-21T11:09:31;6.78;;;6.18;;
14007;SDS011;61651;45.508;12.232;2023-08-21T11:12:36;7.20;;;6.60;;
14007;SDS011;61651;45.508;12.232;2023-08-21T11:15:40;7.32;;;6.72;;
14007;SDS011;61651;45.508;12.232;2023-08-21T11:18:42;7.57;;;6.85;;
14007;SDS011;61651;45.508;12.232;2023-08-21T11:21:50;7.00;;;6.25;;
14007;SDS011;61651;45.508;12.232;2023-08-21T11:24:52;6.63;;;6.13;;
14007;SDS011;61651;45.508;12.232;2023-08-21T11:27:55;6.68;;;6.25;;
14007;SDS011;61651;45.508;12.232;2023-08-21T11:30:58;6.38;;;5.88;;
14007;SDS011;61651;45.508;12.232;2023-08-21T11:34:01;6.93;;;6.43;;
14007;SDS011;61651;45.508;12.232;2023-08-21T11:37:03;7.53;;;6.68;;
14007;SDS011;61651;45.508;12.232;2023-08-21T11:40:07;7.55;;;6.93;;
14007;SDS011;61651;45.508;12.232;2023-08-21T11:43:10;6.30;;;5.80;;
14007;SDS011;61651;45.508;12.232;2023-08-21T11:46:18;6.90;;;6.30;;
14007;SDS011;61651;45.508;12.232;2023-08-21T11:49:20;7.63;;;6.95;;
14007;SDS011;61651;45.508;12.232;2023-08-21T11:52:23;7.25;;;6.50;;
14007;SDS011;61651;45.508;12.232;2023-08-21T11:55:25;7.47;;;6.88;;
14007;SDS011;61651;45.508;12.232;2023-08-21T11:58:28;7.20;;;6.47;;
14007;SDS011;61651;45.508;12.232;2023-08-21T12:01:33;7.20;;;6.53;;
14007;SDS011;61651;45.508;12.232;2023-08-21T12:04:35;7.65;;;6.90;;
14007;SDS011;61651;45.508;12.232;2023-08-21T12:07:37;7.28;;;6.68;;
14007;SDS011;61651;45.508;12.232;2023-08-21T12:10:39;7.05;;;6.45;;
14007;SDS011;61651;45.508;12.232;2023-08-21T12:13:42;6.95;;;6.25;;
14007;SDS011;61651;45.508;12.232;2023-08-21T12:16:45;8.70;;;6.57;;
14007;SDS011;61651;45.508;12.232;2023-08-21T12:19:47;10.98;;;6.57;;
14007;SDS011;61651;45.508;12.232;2023-08-21T12:22:49;6.72;;;5.97;;
14007;SDS011;61651;45.508;12.232;2023-08-21T12:25:51;6.95;;;6.45;;
14007;SDS011;61651;45.508;12.232;2023-08-21T12:28:53;6.90;;;6.30;;
14007;SDS011;61651;45.508;12.232;2023-08-21T12:31:56;6.65;;;6.05;;
14007;SDS011;61651;45.508;12.232;2023-08-21T12:34:58;7.38;;;6.10;;
14007;SDS011;61651;45.508;12.232;2023-08-21T12:38:00;6.30;;;5.80;;
14007;SDS011;61651;45.508;12.232;2023-08-21T12:41:05;7.78;;;6.57;;
14007;SDS011;61651;45.508;12.232;2023-08-21T12:44:07;6.95;;;6.45;;
14007;SDS011;61651;45.508;12.232;2023-08-21T12:47:10;7.00;;;6.40;;
14007;SDS011;61651;45.508;12.232;2023-08-21T12:50:13;6.68;;;6.13;;
14007;SDS011;61651;45.508;12.232;2023-08-21T12:53:15;7.50;;;6.85;;
14007;SDS011;61651;45.508;12.232;2023-08-21T12:56:17;8.00;;;6.55;;
14007;SDS011;61651;45.508;12.232;2023-08-21T12:59:19;7.75;;;7.10;;
14007;SDS011;61651;45.508;12.232;2023-08-21T13:02:22;7.45;;;6.03;;
14007;SDS011;61651;45.508;12.232;2023-08-21T13:05:24;7.15;;;6.47;;
14007;SDS011;61651;45.508;12.232;2023-08-21T13:08:26;6.55;;;6.15;;
14007;SDS011;61651;45.508;12.232;2023-08-21T13:11:28;6.28;;;5.78;;
14007;SDS011;61651;45.508;12.232;2023-08-21T13:14:30;7.55;;;6.88;;
14007;SDS011;61651;45.508;12.232;2023-08-21T13:17:34;8.02;;;6.60;;
14007;SDS011;61651;45.508;12.232;2023-08-21T13:20:36;7.75;;;7.03;;
14007;SDS011;61651;45.508;12.232;2023-08-21T13:23:38;7.03;;;6.20;;
14007;SDS011;61651;45.508;12.232;2023-08-21T13:26:40;7.00;;;6.40;;
14007;SDS011;61651;45.508;12.232;2023-08-21T13:29:42;7.22;;;6.50;;
14007;SDS011;61651;45.508;12.232;2023-08-21T13:32:46;6.97;;;6.28;;
14007;SDS011;61651;45.508;12.232;2023-08-21T13:35:48;7.10;;;6.50;;
14007;SDS011;61651;45.508;12.232;2023-08-21T13:38:50;7.45;;;6.45;;
14007;SDS011;61651;45.508;12.232;2023-08-21T13:41:52;7.88;;;6.60;;
14007;SDS011;61651;45.508;12.232;2023-08-21T13:44:54;7.60;;;6.80;;
14007;SDS011;61651;45.508;12.232;2023-08-21T13:47:57;7.55;;;6.88;;
14007;SDS011;61651;45.508;12.232;2023-08-21T13:50:59;7.60;;;7.00;;
14007;SDS011;61651;45.508;12.232;2023-08-21T13:54:01;9.25;;;6.63;;
14007;SDS011;61651;45.508;12.232;2023-08-21T13:57:03;7.63;;;6.35;;
14007;SDS011;61651;45.508;12.232;2023-08-21T14:00:06;8.20;;;6.68;;
14007;SDS011;61651;45.508;12.232;2023-08-21T14:03:13;7.10;;;6.40;;
14007;SDS011;61651;45.508;12.232;2023-08-21T14:06:15;7.15;;;6.45;;
14007;SDS011;61651;45.508;12.232;2023-08-21T14:09:18;7.20;;;6.60;;
14007;SDS011;61651;45.508;12.232;2023-08-21T14:12:20;6.80;;;6.30;;
14007;SDS011;61651;45.508;12.232;2023-08-21T14:15:22;6.95;;;6.38;;
14007;SDS011;61651;45.508;12.232;2023-08-21T14:18:25;7.47;;;6.57;;
14007;SDS011;61651;45.508;12.232;2023-08-21T14:21:27;10.15;;;6.90;;
14007;SDS011;61651;45.508;12.232;2023-08-21T14:24:30;7.50;;;6.72;;
14007;SDS011;61651;45.508;12.232;2023-08-21T14:27:32;7.40;;;6.28;;
14007;SDS011;61651;45.508;12.232;2023-08-21T14:30:34;6.75;;;6.25;;
14007;SDS011;61651;45.508;12.232;2023-08-21T14:33:37;7.10;;;6.50;;
14007;SDS011;61651;45.508;12.232;2023-08-21T14:36:39;8.32;;;6.47;;
14007;SDS011;61651;45.508;12.232;2023-08-21T14:39:43;7.50;;;6.10;;
14007;SDS011;61651;45.508;12.232;2023-08-21T14:42:45;7.55;;;6.20;;
14007;SDS011;61651;45.508;12.232;2023-08-21T14:45:47;6.95;;;6.25;;
14007;SDS011;61651;45.508;12.232;2023-08-21T14:48:50;6.50;;;5.90;;
14007;SDS011;61651;45.508;12.232;2023-08-21T14:51:53;6.40;;;5.80;;
14007;SDS011;61651;45.508;12.232;2023-08-21T14:54:55;7.75;;;6.20;;
14007;SDS011;61651;45.508;12.232;2023-08-21T14:57:57;7.05;;;6.53;;
14007;SDS011;61651;45.508;12.232;2023-08-21T15:01:05;7.25;;;6.57;;
14007;SDS011;61651;45.508;12.232;2023-08-21T15:04:09;7.28;;;6.63;;
14007;SDS011;61651;45.508;12.232;2023-08-21T15:07:11;6.35;;;5.80;;
14007;SDS011;61651;45.508;12.232;2023-08-21T15:10:13;7.63;;;6.30;;
14007;SDS011;61651;45.508;12.232;2023-08-21T15:13:15;6.20;;;5.60;;
14007;SDS011;61651;45.508;12.232;2023-08-21T15:16:17;6.40;;;5.90;;
14007;SDS011;61651;45.508;12.232;2023-08-21T15:19:20;7.18;;;5.75;;
14007;SDS011;61651;45.508;12.232;2023-08-21T15:22:23;6.70;;;6.20;;
14007;SDS011;61651;45.508;12.232;2023-08-21T15:25:25;8.95;;;6.28;;
14007;SDS011;61651;45.508;12.232;2023-08-21T15:28:27;7.80;;;5.60;;
14007;SDS011;61651;45.508;12.232;2023-08-21T15:31:29;7.90;;;6.22;;
14007;SDS011;61651;45.508;12.232;2023-08-21T15:34:32;6.68;;;5.97;;
14007;SDS011;61651;45.508;12.232;2023-08-21T15:37:34;8.35;;;6.10;;
14007;SDS011;61651;45.508;12.232;2023-08-21T15:40:36;8.55;;;6.05;;
14007;SDS011;61651;45.508;12.232;2023-08-21T15:43:38;6.45;;;5.85;;
14007;SDS011;61651;45.508;12.232;2023-08-21T15:46:40;6.70;;;6.20;;
14007;SDS011;61651;45.508;12.232;2023-08-21T15:49:43;9.07;;;6.20;;
14007;SDS011;61651;45.508;12.232;2023-08-21T15:52:47;6.80;;;6.30;;
14007;SDS011;61651;45.508;12.232;2023-08-21T15:55:49;6.43;;;6.00;;
14007;SDS011;61651;45.508;12.232;2023-08-21T15:58:53;6.63;;;5.93;;
14007;SDS011;61651;45.508;12.232;2023-08-21T16:01:55;6.90;;;6.22;;
14007;SDS011;61651;45.508;12.232;2023-08-21T16:04:58;6.75;;;6.28;;
14007;SDS011;61651;45.508;12.232;2023-08-21T16:08:00;6.97;;;6.32;;
14007;SDS011;61651;45.508;12.232;2023-08-21T16:11:02;7.05;;;6.55;;
14007;SDS011;61651;45.508;12.232;2023-08-21T16:14:04;6.70;;;5.95;;
14007;SDS011;61651;45.508;12.232;2023-08-21T16:17:07;7.25;;;6.65;;
14007;SDS011;61651;45.508;12.232;2023-08-21T16:20:11;6.85;;;6.35;;
14007;SDS011;61651;45.508;12.232;2023-08-21T16:23:15;6.18;;;5.72;;
14007;SDS011;61651;45.508;12.232;2023-08-21T16:26:17;7.70;;;7.05;;
14007;SDS011;61651;45.508;12.232;2023-08-21T16:29:19;9.15;;;6.97;;
14007;SDS011;61651;45.508;12.232;2023-08-21T16:32:23;7.85;;;7.25;;
14007;SDS011;61651;45.508;12.232;2023-08-21T16:35:26;7.43;;;6.80;;
14007;SDS011;61651;45.508;12.232;2023-08-21T16:38:28;7.43;;;6.75;;
14007;SDS011;61651;45.508;12.232;2023-08-21T16:41:30;7.53;;;6.55;;
14007;SDS011;61651;45.508;12.232;2023-08-21T16:44:32;7.05;;;6.35;;
14007;SDS011;61651;45.508;12.232;2023-08-21T16:47:34;6.70;;;6.20;;
14007;SDS011;61651;45.508;12.232;2023-08-21T16:50:38;7.60;;;6.90;;
14007;SDS011;61651;45.508;12.232;2023-08-21T16:53:40;22.73;;;7.47;;
14007;SDS011;61651;45.508;12.232;2023-08-21T16:56:42;7.05;;;6.35;;
14007;SDS011;61651;45.508;12.232;2023-08-21T16:59:44;7.32;;;6.63;;
14007;SDS011;61651;45.508;12.232;2023-08-21T17:02:46;8.80;;;6.80;;
14007;SDS011;61651;45.508;12.232;2023-08-21T17:05:49;10.68;;;6.55;;
14007;SDS011;61651;45.508;12.232;2023-08-21T17:08:51;7.03;;;6.43;;
14007;SDS011;61651;45.508;12.232;2023-08-21T17:11:53;7.10;;;6.50;;
14007;SDS011;61651;45.508;12.232;2023-08-21T17:14:55;7.72;;;7.03;;
14007;SDS011;61651;45.508;12.232;2023-08-21T17:17:57;7.13;;;6.57;;
14007;SDS011;61651;45.508;12.232;2023-08-21T17:21:00;7.28;;;6.68;;
14007;SDS011;61651;45.508;12.232;2023-08-21T17:24:03;7.32;;;6.65;;
14007;SDS011;61651;45.508;12.232;2023-08-21T17:27:05;7.38;;;6.68;;
14007;SDS011;61651;45.508;12.232;2023-08-21T17:30:08;7.63;;;6.78;;
14007;SDS011;61651;45.508;12.232;2023-08-21T17:33:11;7.35;;;6.65;;
14007;SDS011;61651;45.508;12.232;2023-08-21T17:36:14;7.15;;;6.45;;
14007;SDS011;61651;45.508;12.232;2023-08-21T17:39:16;6.60;;;6.10;;
14007;SDS011;61651;45.508;12.232;2023-08-21T17:42:18;7.78;;;6.95;;
14007;SDS011;61651;45.508;12.232;2023-08-21T17:45:20;6.95;;;6.35;;
14007;SDS011;61651;45.508;12.232;2023-08-21T17:48:23;8.27;;;7.50;;
14007;SDS011;61651;45.508;12.232;2023-08-21T17:51:27;8.55;;;7.00;;
14007;SDS011;61651;45.508;12.232;2023-08-21T17:54:29;6.90;;;6.28;;
14007;SDS011;61651;45.508;12.232;2023-08-21T17:57:31;7.65;;;7.05;;
14007;SDS011;61651;45.508;12.232;2023-08-21T18:00:33;7.40;;;6.75;;
14007;SDS011;61651;45.508;12.232;2023-08-21T18:03:35;6.93;;;6.43;;
14007;SDS011;61651;45.508;12.232;2023-08-21T18:06:39;9.48;;;7.50;;
14007;SDS011;61651;45.508;12.232;2023-08-21T18:09:41;7.38;;;6.78;;
14007;SDS011;61651;45.508;12.232;2023-08-21T18:12:44;7.15;;;6.55;;
14007;SDS011;61651;45.508;12.232;2023-08-21T18:15:47;7.63;;;7.03;;
14007;SDS011;61651;45.508;12.232;2023-08-21T18:18:50;7.68;;;6.88;;
14007;SDS011;61651;45.508;12.232;2023-08-21T18:21:53;7.70;;;6.85;;
14007;SDS011;61651;45.508;12.232;2023-08-21T18:24:55;7.97;;;6.97;;
14007;SDS011;61651;45.508;12.232;2023-08-21T18:27:57;8.55;;;7.05;;
14007;SDS011;61651;45.508;12.232;2023-08-21T18:30:59;7.80;;;7.10;;
14007;SDS011;61651;45.508;12.232;2023-08-21T18:34:02;8.43;;;7.35;;
14007;SDS011;61651;45.508;12.232;2023-08-21T18:37:06;7.47;;;6.55;;
14007;SDS011;61651;45.508;12.232;2023-08-21T18:40:10;7.90;;;7.20;;
14007;SDS011;61651;45.508;12.232;2023-08-21T18:43:12;11.25;;;7.05;;
14007;SDS011;61651;45.508;12.232;2023-08-21T18:46:14;7.88;;;7.30;;
14007;SDS011;61651;45.508;12.232;2023-08-21T18:49:18;7.80;;;7.10;;